Time;durP1;ratioP1;P1;durP2;ratioP2;P2;SDS_P1;SDS_P2;PMS_P1;PMS_P2;Temp;Humidity;BMP_temperature;BMP_pressure;BME280_temperature;BME280_humidity;BME280_pressure;Samples;Min_cycle;Max_cycle;Signal;HPM_P1;HPM_P2
2022/09/12 00:01:49;;;;;;;;;13.00;12.50;;;;;19.28;49.57;101037.81;4979910;28;45449;-63
2022/09/12 00:04:15;;;;;;;;;11.75;11.00;;;;;19.27;50.07;101044.06;5000879;28;46322;-63
2022/09/12 00:06:40;;;;;;;;;10.50;10.00;;;;;19.26;49.93;101036.16;5000759;28;45256;-63
2022/09/12 00:09:09;;;;;;;;;11.25;11.25;;;;;19.24;49.98;101041.53;5000813;28;45366;-63
2022/09/12 00:11:40;;;;;;;;;12.25;10.75;;;;;19.21;50.02;101033.69;5000971;28;45249;-63
2022/09/12 00:14:07;;;;;;;;;12.00;10.50;;;;;19.22;49.84;101040.75;5000459;28;45588;-63
2022/09/12 00:16:35;;;;;;;;;14.25;13.25;;;;;19.23;49.96;101049.59;5000688;28;45351;-63
2022/09/12 00:19:01;;;;;;;;;11.00;10.00;;;;;19.22;50.15;101040.75;5000717;28;45291;-63
2022/09/12 00:21:27;;;;;;;;;9.50;9.50;;;;;19.22;49.75;101032.78;4980079;28;45260;-63
2022/09/12 00:23:53;;;;;;;;;12.00;10.50;;;;;19.12;50.23;101018.16;5000361;28;46284;-63
2022/09/12 00:26:19;;;;;;;;;13.50;10.75;;;;;19.19;49.94;101032.03;5000553;28;45207;-63
2022/09/12 00:28:45;;;;;;;;;14.25;13.50;;;;;19.18;49.95;101028.50;5000764;28;45334;-63
2022/09/12 00:31:15;;;;;;;;;12.50;12.50;;;;;19.17;50.45;101024.13;4981951;28;45212;-63
2022/09/12 00:33:41;;;;;;;;;11.00;11.00;;;;;19.16;50.00;101019.72;4979355;28;48280;-64
2022/09/12 00:36:14;;;;;;;;;13.25;12.75;;;;;19.13;50.18;101020.75;4995782;28;45312;-63
2022/09/12 00:38:40;;;;;;;;;13.75;13.25;;;;;19.14;50.16;101010.94;4999723;28;45338;-63
2022/09/12 00:41:12;;;;;;;;;15.75;12.00;;;;;19.14;50.53;101010.94;5000430;28;45263;-63
2022/09/12 00:43:40;;;;;;;;;13.00;12.00;;;;;19.13;50.47;101009.19;5000115;28;46373;-63
2022/09/12 00:46:41;;;;;;;;;10.75;10.50;;;;;19.11;50.23;101003.94;5000085;28;45415;-63
2022/09/12 00:49:15;;;;;;;;;13.75;13.50;;;;;19.09;50.14;101003.16;4997007;28;45341;-63
2022/09/12 00:51:54;;;;;;;;;11.25;11.25;;;;;19.10;50.29;101004.03;5000188;28;45263;-63
2022/09/12 00:54:26;;;;;;;;;12.00;11.75;;;;;19.08;50.27;100997.91;4999989;28;45736;-63
2022/09/12 00:56:58;;;;;;;;;12.25;11.00;;;;;19.07;50.35;100986.38;4979145;28;45348;-63
2022/09/12 00:59:28;;;;;;;;;12.25;12.25;;;;;19.06;50.37;100992.66;4999243;28;45502;-63
2022/09/12 01:01:55;;;;;;;;;9.25;8.25;;;;;19.04;50.33;100988.31;5000018;28;45305;-63
2022/09/12 01:04:23;;;;;;;;;11.75;9.25;;;;;19.03;50.60;100986.59;4999990;28;46215;-63
2022/09/12 01:06:49;;;;;;;;;10.00;10.00;;;;;19.02;50.71;100990.19;4999679;28;45271;-63
2022/09/12 01:09:20;;;;;;;;;11.00;10.50;;;;;18.98;50.51;100984.13;5000096;28;45270;-63
2022/09/12 01:11:47;;;;;;;;;10.25;10.25;;;;;18.96;50.28;100983.34;4999920;28;45400;-63
2022/09/12 01:14:14;;;;;;;;;13.00;10.75;;;;;18.96;50.32;100983.34;4999745;28;45259;-63
2022/09/12 01:16:39;;;;;;;;;9.00;7.50;;;;;18.91;50.51;100978.22;4999671;28;45476;-63
2022/09/12 01:19:26;;;;;;;;;11.00;9.50;;;;;18.91;50.60;100978.22;5000075;28;45283;-63
2022/09/12 01:22:03;;;;;;;;;11.50;10.25;;;;;18.91;50.69;100977.38;4999347;28;45454;-63
2022/09/12 01:24:59;;;;;;;;;12.25;10.00;;;;;18.89;50.46;100980.06;4999621;28;45311;-64
2022/09/12 01:27:40;;;;;;;;;13.00;9.25;;;;;18.87;50.63;100981.94;4999529;28;45327;-63
2022/09/12 01:30:29;;;;;;;;;9.75;9.00;;;;;18.86;50.98;100976.69;4978782;28;45605;-63
2022/09/12 01:32:54;;;;;;;;;9.25;9.25;;;;;18.83;50.65;100980.34;4994798;28;45313;-63
2022/09/12 01:35:42;;;;;;;;;12.75;11.75;;;;;18.82;50.91;100971.50;4983770;28;46008;-63
2022/09/12 01:38:35;;;;;;;;;12.00;9.50;;;;;18.80;50.85;100964.50;4999109;28;45297;-63
2022/09/12 01:41:09;;;;;;;;;11.00;11.00;;;;;18.79;50.65;100962.78;4981915;28;45394;-63
2022/09/12 01:43:49;;;;;;;;;11.50;10.75;;;;;18.77;50.71;100962.00;5002995;28;45474;-63
2022/09/12 01:46:19;;;;;;;;;13.00;9.50;;;;;18.75;50.96;100956.72;5002721;28;46069;-63
2022/09/12 01:48:59;;;;;;;;;14.00;14.00;;;;;18.73;50.58;100955.94;5002925;28;45188;-63
2022/09/12 01:51:34;;;;;;;;;12.75;10.50;;;;;18.73;50.65;100947.06;5002973;28;45413;-63
2022/09/12 01:54:11;;;;;;;;;12.50;12.00;;;;;18.70;50.86;100953.41;5002815;28;45248;-63
2022/09/12 01:56:40;;;;;;;;;13.75;12.50;;;;;18.70;51.21;100958.72;5002808;28;46303;-63
2022/09/12 01:59:21;;;;;;;;;9.00;9.00;;;;;18.68;50.80;100950.81;5002590;28;45350;-63
2022/09/12 02:01:55;;;;;;;;;14.25;12.75;;;;;18.69;50.74;100954.34;5002810;28;45379;-63
2022/09/12 02:04:31;;;;;;;;;13.00;11.00;;;;;18.65;51.25;100956.28;5002750;28;45242;-63
2022/09/12 02:07:05;;;;;;;;;12.00;10.25;;;;;18.64;50.95;100957.22;5002246;28;46453;-63
2022/09/12 02:09:53;;;;;;;;;12.00;11.00;;;;;18.63;51.25;100951.97;5002468;28;45256;-63
2022/09/12 02:12:26;;;;;;;;;12.75;8.75;;;;;18.59;51.04;100948.59;5001751;28;45346;-63
2022/09/12 02:15:00;;;;;;;;;10.25;8.75;;;;;18.59;51.28;100953.03;5002530;28;45271;-64
2022/09/12 02:17:26;;;;;;;;;14.75;11.25;;;;;18.57;51.22;100953.09;4981459;28;47852;-63
2022/09/12 02:19:57;;;;;;;;;13.00;9.75;;;;;18.55;51.43;100946.97;4998259;28;45449;-63
2022/09/12 02:22:26;;;;;;;;;9.75;8.00;;;;;18.53;51.13;100943.53;5002214;28;45248;-63
2022/09/12 02:24:57;;;;;;;;;13.25;11.75;;;;;18.50;51.17;100941.88;5002337;28;45441;-64
2022/09/12 02:27:29;;;;;;;;;10.00;10.00;;;;;18.50;51.27;100940.97;5002214;28;46188;-63
2022/09/12 02:29:54;;;;;;;;;13.50;12.00;;;;;18.48;51.53;100941.06;4981226;28;45385;-67
2022/09/12 02:32:37;;;;;;;;;9.75;9.75;;;;;18.44;51.54;100933.28;4993060;28;45454;-63
2022/09/12 02:35:18;;;;;;;;;11.50;11.50;;;;;18.45;51.14;100943.00;5002202;28;45313;-63
2022/09/12 02:38:07;;;;;;;;;12.50;11.25;;;;;18.44;51.44;100935.94;5001909;28;46371;-63
2022/09/12 02:40:33;;;;;;;;;10.75;9.50;;;;;18.41;51.62;100934.28;4984533;28;45347;-63
2022/09/12 02:43:00;;;;;;;;;12.00;11.00;;;;;18.40;51.74;100931.69;5001957;28;45338;-63
2022/09/12 02:45:25;;;;;;;;;8.50;8.00;;;;;18.39;51.32;100930.84;4968080;28;45339;-63
2022/09/12 02:47:58;;;;;;;;;11.00;11.00;;;;;18.37;51.78;100923.84;5001773;28;45484;-63
2022/09/12 02:50:24;;;;;;;;;13.00;8.00;;;;;18.34;51.48;100919.53;5001317;28;45405;-63
2022/09/12 02:52:52;;;;;;;;;11.25;9.75;;;;;18.34;51.42;100920.38;5001302;28;45488;-63
2022/09/12 02:55:18;;;;;;;;;10.00;10.00;;;;;18.30;51.41;100916.13;4984084;28;46344;-63
2022/09/12 02:57:43;;;;;;;;;10.75;8.50;;;;;18.33;51.58;100913.34;5001564;28;46581;-63
2022/09/12 03:00:09;;;;;;;;;9.50;8.50;;;;;18.31;51.72;100911.69;5001866;28;47395;-63
2022/09/12 03:03:12;;;;;;;;;9.75;9.75;;;;;18.30;51.64;100912.59;5001865;28;45266;-63
2022/09/12 03:05:52;;;;;;;;;10.25;10.25;;;;;18.26;52.04;100908.34;4988931;28;45248;-63
2022/09/12 03:08:30;;;;;;;;;9.75;9.75;;;;;18.26;51.60;100905.69;5001643;28;47170;-63
2022/09/12 03:11:14;;;;;;;;;10.50;10.50;;;;;18.24;51.89;100908.44;5001707;28;45402;-63
2022/09/12 03:13:49;;;;;;;;;13.75;12.50;;;;;18.22;52.05;100904.97;5001613;28;45359;-63
2022/09/12 03:16:33;;;;;;;;;12.75;11.00;;;;;18.20;52.00;100904.19;5001831;28;45300;-63
2022/09/12 03:19:09;;;;;;;;;10.50;9.25;;;;;18.18;51.89;100895.41;5001385;28;46246;-63
2022/09/12 03:22:08;;;;;;;;;9.25;9.25;;;;;18.16;52.18;100894.59;5001258;28;45432;-63
2022/09/12 03:24:53;;;;;;;;;10.50;8.50;;;;;18.12;51.63;100883.22;5001591;28;45444;-63
2022/09/12 03:27:31;;;;;;;;;11.50;10.00;;;;;18.10;51.80;100885.09;5001547;28;45369;-63
2022/09/12 03:29:57;;;;;;;;;8.50;8.50;;;;;18.11;52.21;100884.16;5001165;28;46390;-63
2022/09/12 03:32:41;;;;;;;;;9.25;9.25;;;;;18.12;51.91;100895.66;5001360;28;45378;-63
2022/09/12 03:35:07;;;;;;;;;11.50;10.75;;;;;18.03;52.19;100878.31;5001439;28;45424;-63
2022/09/12 03:37:32;;;;;;;;;10.00;9.00;;;;;18.09;52.02;100891.34;5001016;28;45275;-63
2022/09/12 03:39:58;;;;;;;;;11.00;8.75;;;;;18.07;51.99;100885.22;5001267;28;46245;-63
2022/09/12 03:42:23;;;;;;;;;11.75;8.00;;;;;18.07;52.16;100884.38;5000727;28;56606;-63
2022/09/12 03:44:48;;;;;;;;;15.00;11.50;;;;;18.02;52.06;100876.56;5001516;28;45274;-63
2022/09/12 03:47:14;;;;;;;;;7.25;7.25;;;;;18.02;51.93;100871.25;5001271;28;45378;-63
2022/09/12 03:49:39;;;;;;;;;8.25;8.00;;;;;18.01;52.18;100885.47;5000900;28;45329;-63
2022/09/12 03:52:04;;;;;;;;;9.75;8.75;;;;;18.01;52.18;100890.78;5000641;28;49833;-63
2022/09/12 03:54:30;;;;;;;;;8.25;8.25;;;;;18.00;52.05;100883.78;5001326;28;45281;-63
2022/09/12 03:56:55;;;;;;;;;11.50;10.50;;;;;17.95;52.08;100878.66;5001136;28;45326;-63
2022/09/12 03:59:20;;;;;;;;;10.00;10.00;;;;;17.98;52.21;100880.31;5000770;28;47226;-63
2022/09/12 04:01:46;;;;;;;;;10.00;8.50;;;;;17.97;52.37;100881.22;5001041;28;45380;-63
2022/09/12 04:04:11;;;;;;;;;10.25;10.25;;;;;17.95;52.37;100880.41;5000925;28;45506;-63
2022/09/12 04:06:36;;;;;;;;;33.00;30.50;;;;;17.94;52.53;100879.56;4999660;28;45612;-63
2022/09/12 04:09:02;;;;;;;;;21.25;17.00;;;;;17.94;52.30;100882.22;5000494;28;46196;-63
2022/09/12 04:11:28;;;;;;;;;11.50;10.25;;;;;17.94;52.49;100878.72;5000880;28;45303;-63
2022/09/12 04:13:53;;;;;;;;;7.00;7.00;;;;;17.92;52.20;100880.53;5000686;28;45347;-63
2022/09/12 04:16:19;;;;;;;;;9.75;9.00;;;;;17.91;52.48;100886.78;5000758;28;45543;-63
2022/09/12 04:18:45;;;;;;;;;11.00;9.25;;;;;17.89;52.59;100886.84;5000590;28;46282;-63
2022/09/12 04:21:16;;;;;;;;;11.75;10.25;;;;;17.87;52.45;100889.56;5000687;28;45458;-63
2022/09/12 04:23:42;;;;;;;;;11.00;8.00;;;;;17.85;52.60;100891.41;4983005;28;45275;-63
2022/09/12 04:26:08;;;;;;;;;13.50;12.50;;;;;17.84;52.41;100894.16;4983106;28;45230;-63
2022/09/12 04:28:36;;;;;;;;;11.25;9.50;;;;;17.83;52.46;100890.59;5000264;28;46241;-63
2022/09/12 04:31:03;;;;;;;;;8.50;8.00;;;;;17.82;52.42;100888.91;5000388;28;45243;-63
2022/09/12 04:33:29;;;;;;;;;14.00;11.50;;;;;17.80;52.81;100893.41;5000429;28;45643;-64
2022/09/12 04:35:54;;;;;;;;;11.75;10.75;;;;;17.76;52.64;100888.28;4999960;28;45366;-63
2022/09/12 04:38:19;;;;;;;;;11.25;11.25;;;;;17.76;52.53;100890.94;5000278;28;45318;-63
2022/09/12 04:40:45;;;;;;;;;10.75;10.75;;;;;17.76;52.62;100891.81;4999645;28;50142;-63
2022/09/12 04:43:10;;;;;;;;;12.25;9.75;;;;;17.75;52.67;100890.09;5000336;28;45385;-63
2022/09/12 04:45:35;;;;;;;;;10.00;10.00;;;;;17.72;52.66;100882.22;5000358;28;45371;-63
2022/09/12 04:48:01;;;;;;;;;12.75;11.00;;;;;17.72;52.75;100895.50;5000065;28;53110;-63
2022/09/12 04:50:26;;;;;;;;;9.25;9.00;;;;;17.72;52.64;100890.19;5000319;28;45369;-63
2022/09/12 04:52:53;;;;;;;;;8.00;6.50;;;;;17.70;52.84;100890.28;5000081;28;45231;-63
2022/09/12 04:55:20;;;;;;;;;10.00;9.00;;;;;17.69;52.90;100893.84;5000122;28;45406;-63
2022/09/12 04:57:45;;;;;;;;;11.25;9.75;;;;;17.66;52.81;100883.38;4999861;28;46296;-63
2022/09/12 05:00:12;;;;;;;;;10.25;10.25;;;;;17.65;53.00;100884.28;4999953;28;45232;-63
2022/09/12 05:02:37;;;;;;;;;10.50;10.00;;;;;17.66;52.76;100882.47;5000299;28;45299;-62
2022/09/12 05:05:03;;;;;;;;;13.25;13.25;;;;;17.65;52.65;100883.44;4999919;28;45380;-62
2022/09/12 05:07:28;;;;;;;;;13.50;12.00;;;;;17.65;52.78;100883.44;4999820;28;46802;-62
2022/09/12 05:09:54;;;;;;;;;12.25;9.50;;;;;17.63;52.87;100869.34;4999805;28;45259;-62
2022/09/12 05:12:19;;;;;;;;;14.00;10.50;;;;;17.63;52.98;100877.31;5000026;28;45384;-63
2022/09/12 05:14:45;;;;;;;;;12.75;12.25;;;;;17.61;53.05;100872.06;4999747;28;45465;-63
2022/09/12 05:17:10;;;;;;;;;10.50;8.75;;;;;17.62;52.98;100867.59;4999558;28;47580;-64
2022/09/12 05:19:35;;;;;;;;;13.00;11.25;;;;;17.62;52.92;100875.56;4999756;28;45294;-62
2022/09/12 05:22:01;;;;;;;;;9.00;9.00;;;;;17.61;52.77;100877.38;4999667;28;45331;-62
2022/09/12 05:24:26;;;;;;;;;9.25;9.25;;;;;17.61;53.05;100866.75;4999669;28;45390;-62
2022/09/12 05:26:52;;;;;;;;;11.00;8.50;;;;;17.60;52.93;100872.97;4999629;28;46066;-62
2022/09/12 05:29:17;;;;;;;;;11.00;9.00;;;;;17.60;53.09;100872.13;4999482;28;45251;-62
2022/09/12 05:31:43;;;;;;;;;17.50;17.25;;;;;17.60;53.16;100869.47;4999629;28;45310;-64
2022/09/12 05:34:09;;;;;;;;;12.75;12.75;;;;;17.59;53.01;100863.28;4999449;28;45497;-62
2022/09/12 05:36:35;;;;;;;;;8.75;8.75;;;;;17.59;53.10;100865.09;4998941;28;46325;-62
2022/09/12 05:39:01;;;;;;;;;12.50;10.75;;;;;17.59;52.97;100867.75;4999229;28;45288;-63
2022/09/12 05:41:29;;;;;;;;;13.00;10.25;;;;;17.59;53.14;100865.94;4999409;28;45436;-63
2022/09/12 05:44:00;;;;;;;;;10.75;9.75;;;;;17.59;53.14;100863.28;4999024;28;45355;-63
2022/09/12 05:46:30;;;;;;;;;14.00;10.25;;;;;17.59;53.20;100870.41;4999154;28;46138;-63
2022/09/12 05:48:57;;;;;;;;;11.25;11.00;;;;;17.60;53.18;100872.13;4999047;28;45350;-63
2022/09/12 05:51:27;;;;;;;;;7.50;7.25;;;;;17.59;53.28;100868.59;4999201;28;45306;-63
2022/09/12 05:53:58;;;;;;;;;9.00;9.00;;;;;17.59;53.59;100870.41;4999133;28;45369;-63
2022/09/12 05:56:29;;;;;;;;;10.00;8.50;;;;;17.59;53.34;100865.09;4999166;28;46032;-63
2022/09/12 05:59:00;;;;;;;;;11.50;9.50;;;;;17.60;53.33;100874.78;4999035;28;45279;-63
2022/09/12 06:01:27;;;;;;;;;9.50;8.00;;;;;17.59;53.27;100884.53;4999493;28;45172;-63
2022/09/12 06:03:55;;;;;;;;;11.75;9.75;;;;;17.60;53.30;100883.63;4998927;28;45460;-62
2022/09/12 06:06:23;;;;;;;;;47.25;37.50;;;;;17.61;53.12;100872.06;4998712;28;45283;-63
2022/09/12 06:08:51;;;;;;;;;25.00;22.50;;;;;17.62;53.55;100881.78;4998827;28;45262;-63
2022/09/12 06:11:19;;;;;;;;;20.75;18.50;;;;;17.63;53.31;100872.00;4999148;28;45443;-63
2022/09/12 06:13:45;;;;;;;;;15.25;11.50;;;;;17.61;53.41;100871.19;4998745;28;45485;-63
2022/09/12 06:16:18;;;;;;;;;12.25;10.50;;;;;17.65;53.36;100870.16;4999010;28;45903;-63
2022/09/12 06:18:48;;;;;;;;;13.25;11.25;;;;;17.67;53.43;100876.25;4998938;28;45329;-63
2022/09/12 06:21:14;;;;;;;;;15.00;9.50;;;;;17.68;53.37;100873.53;4998787;28;45211;-62
2022/09/12 06:23:40;;;;;;;;;11.00;9.00;;;;;17.69;53.36;100867.28;4998944;28;45267;-63
2022/09/12 06:26:07;;;;;;;;;10.00;7.25;;;;;17.70;53.39;100874.31;4998883;28;45358;-63
2022/09/12 06:28:46;;;;;;;;;11.00;9.50;;;;;17.73;53.33;100877.78;4999414;28;45404;-63
2022/09/12 06:31:14;;;;;;;;;7.50;7.50;;;;;17.74;53.39;100874.22;5002342;28;45290;-63
2022/09/12 06:33:43;;;;;;;;;10.50;9.25;;;;;17.77;53.46;100872.25;5001986;28;45565;-63
2022/09/12 06:36:11;;;;;;;;;9.50;8.00;;;;;17.81;53.24;100879.19;5001778;28;45900;-63
2022/09/12 06:38:37;;;;;;;;;7.50;7.50;;;;;17.82;53.40;100880.06;5002240;28;45298;-63
2022/09/12 06:41:05;;;;;;;;;9.25;7.50;;;;;17.84;53.42;100886.19;5002213;28;45252;-63
2022/09/12 06:43:31;;;;;;;;;8.00;7.00;;;;;17.86;53.36;100884.31;4984297;28;45217;-63
2022/09/12 06:45:56;;;;;;;;;7.00;5.75;;;;;17.90;53.35;100890.34;5001791;28;46115;-63
2022/09/12 06:48:22;;;;;;;;;7.00;7.00;;;;;17.90;53.57;100880.59;5002114;28;45440;-63
2022/09/12 06:51:02;;;;;;;;;8.25;7.50;;;;;17.93;53.60;100876.94;5001816;28;45340;-63
2022/09/12 06:53:29;;;;;;;;;8.50;8.50;;;;;17.94;53.30;100884.88;5001894;28;45394;-64
2022/09/12 06:55:59;;;;;;;;;9.00;8.00;;;;;17.97;53.48;100887.41;5001903;28;45169;-64
2022/09/12 06:58:26;;;;;;;;;10.00;10.00;;;;;17.97;53.33;100884.75;5001640;28;45405;-63
2022/09/12 07:00:51;;;;;;;;;11.00;9.50;;;;;18.02;53.52;100884.56;5001816;28;45437;-64
2022/09/12 07:03:17;;;;;;;;;10.50;9.00;;;;;18.03;53.60;100881.81;4980517;28;45465;-64
2022/09/12 07:05:44;;;;;;;;;7.75;7.00;;;;;18.03;53.43;100887.13;5000771;28;45316;-64
2022/09/12 07:08:10;;;;;;;;;8.50;7.50;;;;;18.05;53.32;100868.47;5001746;28;45196;-64
2022/09/12 07:10:35;;;;;;;;;9.00;8.00;;;;;18.10;53.39;100874.47;5001485;28;45468;-64
2022/09/12 07:13:00;;;;;;;;;11.50;11.50;;;;;18.12;53.26;100877.03;5001521;28;45231;-64
2022/09/12 07:15:26;;;;;;;;;13.00;11.25;;;;;18.15;53.53;100880.44;4980592;28;46568;-64
2022/09/12 07:17:51;;;;;;;;;7.75;7.75;;;;;18.17;53.42;100870.56;4994761;28;45244;-64
2022/09/12 07:20:16;;;;;;;;;8.00;8.00;;;;;18.22;53.44;100870.38;5001652;28;45337;-64
2022/09/12 07:22:42;;;;;;;;;10.50;8.50;;;;;18.25;53.33;100880.91;5001246;28;45544;-64
2022/09/12 07:25:07;;;;;;;;;9.50;8.50;;;;;18.27;53.49;100881.69;5001309;28;45426;-64
2022/09/12 07:27:33;;;;;;;;;10.25;9.00;;;;;18.31;53.26;100882.41;5001313;28;45363;-64
2022/09/12 07:29:59;;;;;;;;;7.50;7.00;;;;;18.32;53.37;100878.81;5001486;28;45473;-64
2022/09/12 07:32:24;;;;;;;;;9.25;9.25;;;;;18.34;53.69;100880.47;5001136;28;45457;-64
2022/09/12 07:34:51;;;;;;;;;12.00;9.25;;;;;18.41;53.58;100882.88;5000977;28;46903;-64
2022/09/12 07:37:16;;;;;;;;;9.25;9.00;;;;;18.43;53.61;100884.53;5001065;28;45457;-64
2022/09/12 07:39:42;;;;;;;;;9.00;8.25;;;;;18.45;53.42;100876.47;5001142;28;45330;-64
2022/09/12 07:42:07;;;;;;;;;9.50;8.25;;;;;18.49;53.69;100883.41;4980391;28;45426;-64
2022/09/12 07:44:32;;;;;;;;;7.75;7.75;;;;;18.52;53.41;100881.44;4999028;28;46153;-64
2022/09/12 07:47:00;;;;;;;;;6.75;5.50;;;;;18.57;53.33;100877.72;5000462;28;45121;-64
2022/09/12 07:49:25;;;;;;;;;8.00;8.00;;;;;18.61;53.42;100882.81;5001155;28;45606;-64
2022/09/12 07:51:50;;;;;;;;;11.00;9.00;;;;;18.64;53.35;100879.16;5000896;28;45473;-64
2022/09/12 07:54:16;;;;;;;;;8.00;8.00;;;;;18.69;53.60;100882.47;5000852;28;46193;-64
2022/09/12 07:56:42;;;;;;;;;9.00;8.50;;;;;18.72;53.41;100878.84;5001251;28;45390;-64
2022/09/12 07:59:07;;;;;;;;;7.75;5.50;;;;;18.76;53.48;100883.06;5000963;28;45321;-64
2022/09/12 08:01:33;;;;;;;;;6.00;6.00;;;;;18.81;53.66;100878.41;4980408;28;45536;-64
2022/09/12 08:03:59;;;;;;;;;5.75;5.75;;;;;18.86;53.56;100872.88;4999192;28;46113;-64
2022/09/12 08:06:26;;;;;;;;;8.25;7.75;;;;;18.88;53.72;100876.28;4979761;28;45346;-64
2022/09/12 08:08:54;;;;;;;;;7.25;6.25;;;;;18.93;53.64;100882.31;4999380;28;45351;-64
2022/09/12 08:11:21;;;;;;;;;7.25;7.00;;;;;18.97;53.46;100878.59;5001034;28;45270;-64
2022/09/12 08:13:48;;;;;;;;;9.00;7.50;;;;;19.02;53.48;100873.00;4983031;28;45630;-64
2022/09/12 08:16:17;;;;;;;;;9.00;7.00;;;;;19.09;53.79;100863.81;5000880;28;45362;-64
2022/09/12 08:18:42;;;;;;;;;8.50;5.50;;;;;19.16;53.80;100876.75;5000619;28;45231;-64
2022/09/12 08:21:22;;;;;;;;;7.25;6.75;;;;;19.22;53.37;100875.59;5000433;28;45195;-64
2022/09/12 08:24:02;;;;;;;;;9.00;6.25;;;;;19.27;53.29;100872.69;5000646;28;45554;-64
2022/09/12 08:26:29;;;;;;;;;6.25;6.25;;;;;19.31;53.38;100872.47;5000439;28;45244;-64
2022/09/12 08:28:55;;;;;;;;;9.00;8.00;;;;;19.40;53.54;100873.84;5000587;28;45343;-63
2022/09/12 08:31:23;;;;;;;;;5.25;5.25;;;;;19.48;53.11;100871.66;5000231;28;45228;-63
2022/09/12 08:33:49;;;;;;;;;7.25;6.75;;;;;19.54;53.28;100870.47;5000213;28;47023;-64
2022/09/12 08:36:19;;;;;;;;;7.50;6.25;;;;;19.62;53.74;100876.31;4999982;28;45337;-64
2022/09/12 08:38:46;;;;;;;;;5.50;5.50;;;;;19.70;53.27;100873.25;5000644;28;45308;-64
2022/09/12 08:41:17;;;;;;;;;6.00;6.00;;;;;19.79;53.83;100879.91;5000207;28;45527;-64
2022/09/12 08:43:52;;;;;;;;;6.50;5.50;;;;;19.87;53.26;100872.41;5000177;28;45953;-63
2022/09/12 08:46:31;;;;;;;;;5.50;5.50;;;;;19.97;53.21;100875.47;4979103;28;45249;-64
2022/09/12 08:48:59;;;;;;;;;7.75;6.75;;;;;20.04;53.57;100860.03;4993928;28;45226;-64
2022/09/12 08:51:27;;;;;;;;;6.00;6.00;;;;;20.10;53.16;100863.25;4999335;28;45309;-64
2022/09/12 08:53:56;;;;;;;;;6.00;5.50;;;;;20.23;53.10;100866.13;4982547;28;45616;-64
2022/09/12 08:56:22;;;;;;;;;6.00;6.00;;;;;20.30;53.52;100862.19;4979075;28;45262;-64
2022/09/12 08:58:48;;;;;;;;;6.50;6.00;;;;;20.42;53.26;100867.81;4994915;28;45408;-64
2022/09/12 09:01:29;;;;;;;;;6.75;5.50;;;;;20.50;53.12;100870.91;5000201;28;45318;-64
2022/09/12 09:04:17;;;;;;;;;9.75;6.00;;;;;20.66;52.86;100875.44;4999952;28;45774;-64
2022/09/12 09:06:51;;;;;;;;;4.75;4.75;;;;;20.75;52.89;100870.50;4993047;28;45334;-64
2022/09/12 09:09:42;;;;;;;;;5.00;4.50;;;;;20.89;53.23;100874.19;5000247;28;45530;-64
2022/09/12 09:12:50;;;;;;;;;6.25;5.50;;;;;21.02;53.12;100880.59;4999646;28;45272;-64
2022/09/12 09:15:25;;;;;;;;;5.25;5.25;;;;;21.15;52.98;100875.41;4999624;28;46522;-62
2022/09/12 09:17:57;;;;;;;;;2.00;2.00;;;;;21.25;52.67;100870.41;4999910;28;45239;-64
2022/09/12 09:20:32;;;;;;;;;6.25;5.75;;;;;21.40;53.11;100863.31;4998268;28;45423;-62
2022/09/12 09:23:16;;;;;;;;;6.25;4.00;;;;;21.53;52.72;100850.09;4999419;28;45241;-62
2022/09/12 09:25:59;;;;;;;;;4.75;4.00;;;;;21.68;52.59;100849.22;4999750;28;45216;-64
2022/09/12 09:28:36;;;;;;;;;4.50;4.50;;;;;21.84;53.00;100843.81;4978466;28;45342;-64
2022/09/12 09:31:02;;;;;;;;;4.00;4.00;;;;;21.98;53.04;100840.31;4993204;28;45226;-63
2022/09/12 09:33:32;;;;;;;;;5.25;5.25;;;;;22.12;52.84;100834.13;4999405;28;45159;-63
2022/09/12 09:36:19;;;;;;;;;5.25;5.25;;;;;22.29;52.08;100826.88;4999254;28;45372;-63
2022/09/12 09:38:58;;;;;;;;;6.50;4.50;;;;;22.48;52.30;100831.97;4999462;28;45323;-63
2022/09/12 09:41:47;;;;;;;;;4.00;4.00;;;;;22.64;52.34;100834.53;4978661;28;45438;-63
2022/09/12 09:44:13;;;;;;;;;3.25;3.25;;;;;22.78;52.22;100833.66;4994452;28;45378;-63
2022/09/12 09:46:38;;;;;;;;;4.75;4.00;;;;;22.90;51.85;100830.19;4978407;28;46148;-64
2022/09/12 09:49:06;;;;;;;;;6.00;4.00;;;;;23.03;51.92;100824.88;4994989;28;45409;-63
2022/09/12 09:51:37;;;;;;;;;4.75;4.00;;;;;23.17;51.74;100829.38;4999330;28;45326;-64
2022/09/12 09:54:28;;;;;;;;;6.50;5.50;;;;;23.32;51.72;100828.38;4999158;28;45259;-63
2022/09/12 09:56:54;;;;;;;;;4.00;3.75;;;;;23.48;51.69;100832.69;4999106;28;46384;-63
2022/09/12 09:59:29;;;;;;;;;4.50;4.50;;;;;23.60;51.36;100831.88;4999081;28;45368;-62
2022/09/12 10:02:00;;;;;;;;;5.00;4.50;;;;;23.76;51.50;100822.75;4999095;28;45347;-62
2022/09/12 10:04:29;;;;;;;;;3.25;3.25;;;;;23.93;51.20;100825.19;5001425;28;45317;-63
2022/09/12 10:07:00;;;;;;;;;5.50;5.00;;;;;24.06;51.22;100825.19;5002303;28;46298;-63
2022/09/12 10:09:31;;;;;;;;;5.50;5.25;;;;;24.20;50.82;100818.00;5002694;28;45259;-63
2022/09/12 10:11:57;;;;;;;;;5.25;5.00;;;;;24.27;50.71;100809.38;5002734;28;45391;-63
2022/09/12 10:14:29;;;;;;;;;3.00;2.75;;;;;24.47;50.54;100807.13;4968590;28;45501;-63
2022/09/12 10:16:56;;;;;;;;;5.00;4.25;;;;;24.58;50.44;100807.19;5002491;28;45258;-63
2022/09/12 10:19:36;;;;;;;;;8.25;7.50;;;;;24.75;50.46;100810.50;5002465;28;45302;-62
2022/09/12 10:22:04;;;;;;;;;5.00;4.75;;;;;24.88;50.23;100811.34;5002164;28;45192;-62
2022/09/12 10:24:40;;;;;;;;;4.50;4.50;;;;;25.05;49.77;100798.47;5002440;28;45717;-63
2022/09/12 10:27:15;;;;;;;;;4.50;4.50;;;;;25.20;50.16;100797.31;5002296;28;47062;-62
2022/09/12 10:29:47;;;;;;;;;4.75;3.75;;;;;25.35;50.26;100803.38;5001352;28;45228;-63
2022/09/12 10:32:30;;;;;;;;;3.50;3.50;;;;;25.51;50.13;100789.66;5002383;28;45302;-62
2022/09/12 10:35:00;;;;;;;;;2.00;2.00;;;;;25.70;49.43;100783.72;5002225;28;45393;-62
2022/09/12 10:37:31;;;;;;;;;4.00;2.25;;;;;25.86;49.77;100785.19;5001820;28;46259;-63
2022/09/12 10:39:58;;;;;;;;;2.25;2.25;;;;;26.04;49.37;100785.59;5001928;28;45346;-62
2022/09/12 10:42:53;;;;;;;;;2.00;2.00;;;;;26.27;49.59;100792.72;5001908;28;45309;-62
2022/09/12 10:45:34;;;;;;;;;2.00;2.00;;;;;26.44;49.72;100790.53;5002184;28;45538;-62
2022/09/12 10:48:03;;;;;;;;;1.50;1.50;;;;;26.73;49.25;100804.34;5001861;28;45410;-64
2022/09/12 10:50:41;;;;;;;;;3.50;3.50;;;;;26.98;48.79;100801.47;5001726;28;45335;-63
2022/09/12 10:53:42;;;;;;;;;2.50;2.50;;;;;27.30;49.05;100795.25;5001996;28;45688;-63
2022/09/12 10:56:09;;;;;;;;;3.25;3.25;;;;;27.65;48.65;100791.41;4977752;28;45889;-62
2022/09/12 10:58:59;;;;;;;;;3.00;2.00;;;;;27.96;48.79;100788.72;4983999;28;45860;-62
2022/09/12 11:01:36;;;;;;;;;1.75;1.00;;;;;28.34;48.52;100793.50;5001085;28;45350;-62
2022/09/12 11:04:27;;;;;;;;;2.50;2.50;;;;;28.76;48.41;100789.78;5001767;28;45317;-62
2022/09/12 11:07:06;;;;;;;;;2.00;2.00;;;;;29.16;48.17;100779.88;5001394;28;45477;-62
2022/09/12 11:09:49;;;;;;;;;1.25;1.25;;;;;29.51;47.87;100786.59;5001421;28;46256;-62
2022/09/12 11:12:38;;;;;;;;;3.25;3.25;;;;;29.81;47.18;100784.66;5001342;28;45585;-62
2022/09/12 11:15:34;;;;;;;;;1.00;1.00;;;;;29.99;46.83;100785.63;5001264;28;45225;-62
2022/09/12 11:18:31;;;;;;;;;1.50;1.50;;;;;30.13;46.30;100788.88;5001757;28;45308;-64
2022/09/12 11:21:26;;;;;;;;;1.75;1.75;;;;;30.21;45.74;100788.13;5001114;28;46116;-62
2022/09/12 11:24:23;;;;;;;;;1.00;1.00;;;;;30.30;45.01;100790.81;4983794;28;45249;-61
2022/09/12 11:27:10;;;;;;;;;1.75;1.00;;;;;30.46;45.16;100789.28;5001489;28;45334;-61
2022/09/12 11:29:45;;;;;;;;;1.00;1.00;;;;;30.64;45.08;100794.78;5001194;28;45430;-62
2022/09/12 11:32:19;;;;;;;;;1.00;1.00;;;;;30.83;45.22;100784.81;5001066;28;46483;-62
2022/09/12 11:35:05;;;;;;;;;2.00;0.75;;;;;30.99;44.95;100784.97;4962043;28;45331;-62
2022/09/12 11:37:33;;;;;;;;;1.00;1.00;;;;;31.19;44.33;100776.72;4962118;28;45417;-62
2022/09/12 11:40:07;;;;;;;;;1.00;1.00;;;;;31.36;43.87;100766.84;4962203;28;45219;-62